Flight Track Log - Related Links

Times and Time Zones

All times are in EDT time to prevent confusion due to time zone crossing. See the N38884 flight status page for this flight to view local times or setup timezone preferences in your user account.

Time Position Orientation Groundspeed Altitude Reporting Facility
EDT Latitude Longitude Course Direction KTS MPH feet Rate Location/Type
Sat 11:53:57 AM 38.0000 -77.7333 325° Northwest 137 158 2,200  Level Potomac TRACON
Sat 11:54:57 AM 38.0333 -77.7500 339° North 137 158 2,300  Climbing Potomac TRACON
Sat 11:55:58 AM 38.0667 -77.7833 322° Northwest 138 159 2,200 -50 Descending Potomac TRACON
Sat 11:56:58 AM 38.1000 -77.8167 322° Northwest 140 161 2,200 100 Level Potomac TRACON
Sat 11:57:58 AM 38.1333 -77.8500 322° Northwest 140 161 2,400 149 Climbing Potomac TRACON
Sat 11:58:59 AM 38.1667 -77.8667 339° North 133 153 2,500  Climbing Potomac TRACON
Sat 11:59:00 AM 38.0314 -77.7248 325° Northwest  Level Estimated
Sat 11:59:59 AM 38.2000 -77.8833 339° North 140 161 2,400  Level Potomac TRACON
Sat 12:01:06 PM 38.2333 -77.9167 322° Northwest 117 135 3,000 236 Climbing Potomac TRACON
Sat 12:02:06 PM 38.2667 -77.9333 339° North 138 159 2,900 -53 Descending Potomac TRACON
Sat 12:03:00 PM 38.2833 -77.9667 303° West 136 157 2,900  Level Potomac TRACON
Sat 12:04:01 PM 38.3167 -78.0000 322° Northwest 140 161 2,900  Level Potomac TRACON
Sat 12:05:07 PM 38.3500 -78.0167 339° North 142 163 2,900 48 Level Potomac TRACON
Sat 12:06:07 PM 38.3833 -78.0500 322° Northwest 131 151 3,000 150 Climbing Potomac TRACON
Sat 12:07:07 PM 38.4167 -78.0833 322° Northwest 140 161 3,200 198 Climbing Potomac TRACON
Sat 12:08:08 PM 38.4500 -78.1000 339° North 127 146 3,400 149 Climbing Potomac TRACON
Sat 12:09:08 PM 38.4833 -78.1333 322° Northwest 133 153 3,500 400 Climbing Potomac TRACON
Sat 12:10:08 PM 38.5000 -78.1667 303° West 119 137 4,200 550 Climbing Potomac TRACON
Sat 12:11:08 PM 38.5333 -78.1833 339° North 126 145 4,600 480 Climbing Potomac TRACON
Sat 12:13:03 PM 38.5833 -78.2333 322° Northwest 123 142 5,600 497 Climbing Potomac TRACON
Sat 12:14:09 PM 38.6167 -78.2667 322° Northwest 120 138 6,100 450 Climbing Potomac TRACON
Sat 12:15:03 PM 38.6333 -78.2833 322° Northwest 128 147 6,500 240 Climbing Potomac TRACON
Sat 12:15:49 PM 38.6619 -78.3036 331° Northwest 132 152 6,500 -57 Level Washington Center
Sat 12:16:49 PM 38.7008 -78.3369 326° Northwest 145 167 6,400  Descending Washington Center
Sat 12:18:00 PM 38.7493 -78.3826 322° Northwest  Level FlightAware Approximate
Sat 12:18:51 PM 38.7783 -78.4064 322° Northwest 167 192 6,500  Level Washington Center
Sat 12:19:48 PM 38.8150 -78.4425 323° Northwest 172 198 6,500  Level Washington Center
Sat 12:20:49 PM 38.8539 -78.4786 324° Northwest 172 198 6,500  Level Washington Center
Sat 12:21:50 PM 38.8925 -78.5122 326° Northwest 172 198 6,500  Level Washington Center
Sat 12:22:51 PM 38.9292 -78.5508 321° Northwest 172 198 6,500  Level Washington Center
Sat 12:23:51 PM 38.9678 -78.5844 326° Northwest 172 198 6,500  Level Washington Center
Sat 12:24:49 PM 39.0067 -78.6181 326° Northwest 172 198 6,500  Level Washington Center
Sat 12:25:50 PM 39.0453 -78.6544 324° Northwest 172 198 6,500  Level Washington Center
Sat 12:26:48 PM 39.0819 -78.6908 322° Northwest 172 198 6,500  Level Washington Center
Sat 12:27:49 PM 39.1206 -78.7272 324° Northwest 172 198 6,500  Level Washington Center
Sat 12:28:51 PM 39.1572 -78.7608 325° Northwest 172 198 6,500  Level Washington Center
Sat 12:29:51 PM 39.1981 -78.7975 325° Northwest 172 198 6,500  Level Washington Center
Sat 12:30:51 PM 39.2367 -78.8342 324° Northwest 172 198 6,500  Level Washington Center
Sat 12:32:48 PM 39.3169 -78.9169 321° Northwest 173 199 6,500  Level Cleveland Center
Sat 12:33:49 PM 39.3572 -78.9508 327° Northwest 174 200 6,500  Level Cleveland Center
Sat 12:34:43 PM 39.3889 -78.9850 320° Northwest 176 203 6,500  Level Cleveland Center
Sat 12:35:44 PM 39.4333 -79.0269 324° Northwest 176 203 6,500  Level Cleveland Center
Sat 12:36:50 PM 39.4756 -79.0636 326° Northwest 175 201 6,500  Level Cleveland Center
Sat 12:37:51 PM 39.5136 -79.1033 321° Northwest 176 203 6,500  Level Cleveland Center
Sat 12:38:52 PM 39.5578 -79.1425 326° Northwest 178 205 6,500  Level Cleveland Center
Sat 12:39:46 PM 39.5936 -79.1769 323° Northwest 175 201 6,500  Level Cleveland Center
Sat 12:40:47 PM 39.6336 -79.2139 325° Northwest 176 203 6,500  Level Cleveland Center
Sat 12:41:47 PM 39.6717 -79.2508 323° Northwest 178 205 6,500  Level Cleveland Center
Sat 12:42:48 PM 39.7117 -79.2906 323° Northwest 179 206 6,500 -49 Level Cleveland Center
Sat 12:43:49 PM 39.7558 -79.3275 327° Northwest 176 203 6,400  Descending Cleveland Center
Sat 12:44:49 PM 39.7958 -79.3644 325° Northwest 175 201 6,500 50 Climbing Cleveland Center
Sat 12:45:50 PM 39.8317 -79.4017 321° Northwest 177 204 6,500  Level Cleveland Center
Sat 12:46:50 PM 39.8717 -79.4417 322° Northwest 175 201 6,500  Level Cleveland Center
Sat 12:47:51 PM 39.9117 -79.4814 323° Northwest 177 204 6,500  Level Cleveland Center
Sat 12:48:52 PM 39.9517 -79.5189 324° Northwest 178 205 6,500  Level Cleveland Center
Sat 12:49:52 PM 39.9917 -79.5561 325° Northwest 177 204 6,500  Level Cleveland Center
Sat 12:50:53 PM 40.0336 -79.5961 324° Northwest 180 207 6,500  Level Cleveland Center
Sat 12:52:00 PM 40.0830 -79.6330 323° Northwest  Level FlightAware Approximate
Sat 12:59:00 PM 40.3657 -79.9157 323° Northwest  Level FlightAware Approximate
Sat 01:00:00 PM 40.4067 -79.9552 324° Northwest  Level FlightAware Approximate
Sat 01:01:00 PM 40.4477 -79.9946 324° Northwest  Level FlightAware Approximate
Sat 01:02:00 PM 40.4887 -80.0341 324° Northwest  Level FlightAware Approximate
Sat 01:03:00 PM 40.5296 -80.0737 324° Northwest  Level FlightAware Approximate
Sat 01:04:00 PM 40.5706 -80.1133 324° Northwest  Level FlightAware Approximate
Sat 01:05:00 PM 40.6115 -80.1530 324° Northwest  Level FlightAware Approximate
Sat 01:06:00 PM 40.6524 -80.1927 324° Northwest  Level FlightAware Approximate
Sat 01:07:00 PM 40.6933 -80.2324 324° Northwest  Level FlightAware Approximate
Sat 01:08:00 PM 40.7342 -80.2722 324° Northwest  Level FlightAware Approximate
Sat 01:09:00 PM 40.7751 -80.3121 324° Northwest  Level FlightAware Approximate
Sat 01:10:00 PM 40.8159 -80.3520 324° Northwest  Level FlightAware Approximate
Sat 01:11:00 PM 40.8568 -80.3919 324° Northwest  Level FlightAware Approximate
Sat 01:12:00 PM 40.8976 -80.4319 323° Northwest  Level FlightAware Approximate
Sat 01:13:00 PM 40.9384 -80.4720 323° Northwest  Level FlightAware Approximate
Sat 01:14:00 PM 40.9784 -80.5135 321° Northwest  Level FlightAware Approximate
Sat 01:15:00 PM 41.0180 -80.5556 321° Northwest  Level FlightAware Approximate
Sat 01:16:00 PM 41.0577 -80.5978 321° Northwest  Level FlightAware Approximate
Sat 01:17:00 PM 41.0973 -80.6401 321° Northwest  Level FlightAware Approximate
Sat 01:18:00 PM 41.1368 -80.6824 321° Northwest  Level FlightAware Approximate
Sat 01:19:00 PM 41.1764 -80.7247 321° Northwest  Level FlightAware Approximate
Sat 01:20:00 PM 41.2164 -80.7663 323° Northwest  Level FlightAware Approximate
Sat 01:21:00 PM 41.2571 -80.8068 323° Northwest  Level FlightAware Approximate
Sat 01:22:00 PM 41.2978 -80.8474 323° Northwest  Level FlightAware Approximate
Sat 01:23:00 PM 41.3384 -80.8880 323° Northwest  Level FlightAware Approximate
Sat 01:23:40 PM 41.2989 -80.8403 322° Northwest 169 194 6,500  Level Cleveland Center
Sat 01:24:00 PM 41.3791 -80.9286 323° Northwest  Level FlightAware Approximate
Sat 01:24:28 PM 41.3281 -80.8708 322° Northwest 170 196 6,500  Level Cleveland Center
Sat 01:25:00 PM 41.4197 -80.9693 323° Northwest  Level FlightAware Approximate
Sat 01:25:29 PM 41.3653 -80.9069 324° Northwest 171 197 6,400  Level Cleveland Center
Sat 01:26:00 PM 41.4603 -81.0101 323° Northwest  Level FlightAware Approximate
Sat 01:26:30 PM 41.4069 -80.9431 327° Northwest 171 197 6,500  Level Cleveland Center
Sat 01:27:00 PM 41.5009 -81.0509 322° Northwest  Level FlightAware Approximate
Sat 01:27:36 PM 41.4486 -80.9903 320° Northwest 172 198 6,500  Level Cleveland Center
Sat 01:28:00 PM 41.5410 -81.0925 322° Northwest  Level FlightAware Approximate
Sat 01:28:43 PM 41.4881 -81.0322 321° Northwest 171 197 6,500  Level Cleveland Center
Sat 01:29:37 PM 41.5253 -81.0686 324° Northwest 171 197 6,500  Level Cleveland Center
Sat 01:30:44 PM 41.5669 -81.1078 325° Northwest 168 193 6,500  Level Cleveland Center
Sat 01:31:39 PM 41.6000 -81.1439 321° Northwest 169 194 6,500  Level Cleveland Center
Sat 01:32:39 PM 41.6375 -81.1833 322° Northwest 168 193 6,500  Level Cleveland Center
Sat 01:33:46 PM 41.6789 -81.2281 321° Northwest 168 193 6,500  Level Cleveland Center
Sat 01:34:47 PM 41.7142 -81.2619 324° Northwest 168 193 6,500  Level Cleveland Center
Sat 01:35:24 PM 41.7347 -81.2844 321° Northwest 170 196 6,500  Level Cleveland Center
Sat 01:35:47 PM 41.7556 -81.3014 329° Northwest 168 193 6,500  Level Cleveland Center
Sat 01:36:24 PM 41.7783 -81.3267 320° Northwest 178 205 6,500  Level Cleveland Center
Sat 01:37:24 PM 41.8136 -81.3631 322° Northwest 173 199 6,500  Level Cleveland Center
Sat 01:38:24 PM 41.8486 -81.3997 322° Northwest 173 199 6,500  Level Cleveland Center
Sat 01:39:24 PM 41.8858 -81.4367 324° Northwest 173 199 6,500  Level Cleveland Center
Sat 01:40:24 PM 41.9231 -81.4761 322° Northwest 168 193 6,500  Level Cleveland Center
Sat 01:41:24 PM 41.9583 -81.5131 322° Northwest 168 193 6,500  Level Cleveland Center
Sat 01:42:24 PM 41.9933 -81.5497 322° Northwest 163 188 6,500 -50 Level Cleveland Center
Sat 01:43:24 PM 42.0328 -81.5839 327° Northwest 163 188 6,400  Descending Cleveland Center
Sat 01:44:24 PM 42.0700 -81.6236 322° Northwest 163 188 6,500 50 Climbing Cleveland Center
Sat 01:45:24 PM 42.1092 -81.6636 323° Northwest 168 193 6,500  Level Cleveland Center
Sat 01:46:24 PM 42.1461 -81.7033 321° Northwest 168 193 6,500  Level Cleveland Center
Sat 01:47:24 PM 42.1814 -81.7403 322° Northwest 168 193 6,500  Level Cleveland Center
Sat 01:48:24 PM 42.2206 -81.7747 327° Northwest 175 201 6,500  Level Cleveland Center
Sat 01:49:24 PM 42.2597 -81.8175 321° Northwest 175 201 6,500  Level Cleveland Center
Sat 01:50:24 PM 42.2947 -81.8575 320° Northwest 175 201 6,500  Level Cleveland Center
Sat 01:51:24 PM 42.3339 -81.9006 321° Northwest 175 201 6,500  Level Cleveland Center
Sat 01:52:24 PM 42.3731 -81.9406 323° Northwest 175 201 6,500  Level Cleveland Center
Sat 01:53:24 PM 42.4122 -81.9808 323° Northwest 175 201 6,500  Level Cleveland Center
Sat 01:54:24 PM 42.4553 -82.0239 324° Northwest 175 201 6,500 50 Level Cleveland Center
Sat 01:55:24 PM 42.4922 -82.0669 319° Northwest 175 201 6,600 50 Climbing Cleveland Center
Sat 01:56:24 PM 42.5333 -82.1075 324° Northwest 175 201 6,600 -50 Level Cleveland Center
Sat 01:57:24 PM 42.5744 -82.1508 322° Northwest 175 201 6,500 -50 Descending Cleveland Center
Sat 01:58:24 PM 42.6114 -82.1942 319° Northwest 175 201 6,500 -150 Level Cleveland Center
Sat 01:59:24 PM 42.6525 -82.2347 324° Northwest 175 201 6,200 -550 Descending Cleveland Center
Sat 02:00:24 PM 42.6936 -82.2808 321° Northwest 182 209 5,400 -850 Descending Cleveland Center
Sat 02:01:24 PM 42.7347 -82.3244 322° Northwest 187 215 4,500 -950 Descending Cleveland Center
Sat 02:02:24 PM 42.7778 -82.3653 325° Northwest 194 223 3,500 -950 Descending Cleveland Center
Sat 02:03:24 PM 42.8167 -82.4089 321° Northwest 194 223 2,600 -450 Descending Cleveland Center
Sat 02:04:24 PM 42.8536 -82.4494 321° Northwest 194 223 2,600  Level Cleveland Center
Sat 02:08:00 PM 42.9000 -82.5167 324° Northwest  Level FlightAware Approximate

Login

Don't have an account? Register now (free) for customized features, flight alerts, and more!